Turks and Caicos Islands Weather

[source: ADDS]
METAR
MBPV 011640Z 0118/0218 12010KT 9999 VCSH SCT018 PROB30 TEMP 0200/0206 10015KT 8000 SHRA FEW012CB SCT018 BKN220 MBGT 011640Z 0118/0218 12010KT 9999 VCSH SCT018 PROB30 TEMP 0200/0206 10015KT 8000 SHRA FEW012CB SCT018 BKN220 TAF
MBPV 011640Z 0118/0218 12010KT 9999 VCSH SCT018 PROB30 TEMP 0200/0206 10015KT 8000 SHRA FEW012CB SCT018 BKN220 =
MBGT 011640Z 0118/0218 12010KT 9999 VCSH SCT018 PROB30 TEMP 0200/0206 10015KT 8000 SHRA FEW012CB SCT018 BKN220 =
SR / SS: 10:22 / 23:28 UTC (MBPV 2014-08-01)
E-mail Print PDF
Weather